Date,TemperatureHighF,TemperatureAvgF,TemperatureLowF,DewpointHighF,DewpointAvgF,DewpointLowF,HumidityHigh,HumidityAvg,HumidityLow,PressureMaxIn,PressureMinIn,WindSpeedMaxMPH,WindSpeedAvgMPH,GustSpeedMaxMPH,PrecipitationSumIn
2013-1-1,51.4,47.0,42.0,44.6,37.7,29.3,95,70,50,29.24,29.10,18,5,23,0.01
2013-1-2,44.6,38.3,33.0,40.6,31.4,19.1,98,78,43,29.39,29.19,10,3,13,0.06
2013-1-3,44.0,35.3,29.5,31.8,23.2,18.4,89,61,43,29.45,29.33,10,4,14,0.00
2013-1-4,46.3,37.3,31.4,27.8,22.1,19.5,65,54,43,29.45,29.36,15,6,22,0.00
2013-1-5,51.8,41.0,33.3,35.6,25.4,20.0,80,54,35,29.57,29.42,16,5,22,0.01
2013-1-6,52.7,42.9,31.2,36.9,33.0,28.4,98,69,50,29.39,29.24,18,5,26,0.02
2013-1-7,50.9,40.1,26.6,32.8,28.7,25.4,95,65,46,29.63,29.36,14,4,19,0.00
2013-1-8,53.7,37.1,25.6,37.7,30.9,24.3,99,80,52,29.63,29.57,12,3,16,0.00
2013-1-9,60.2,47.0,29.4,49.6,41.0,28.8,100,81,50,29.60,29.54,12,4,18,0.00
2013-1-10,60.4,48.6,36.9,39.1,32.1,26.3,80,54,33,29.75,29.60,15,2,18,0.00
2013-1-11,43.0,41.6,38.3,42.3,37.5,32.1,100,86,66,29.66,29.33,14,3,19,0.05
2013-1-12,72.9,51.2,37.7,58.1,47.8,37.7,100,89,60,29.36,29.30,5,2,7,0.00
2013-1-13,71.0,57.9,49.3,61.6,55.4,49.1,100,92,72,29.33,29.24,10,2,13,0.04
2013-1-14,62.0,56.5,43.8,61.3,55.2,43.1,99,95,83,29.45,29.24,12,5,14,1.31
2013-1-15,44.1,39.4,37.1,43.6,38.8,36.6,98,97,95,29.51,29.33,9,4,11,3.83
2013-1-16,50.2,40.3,35.8,45.1,39.3,34.9,99,96,77,29.33,29.16,10,4,12,1.11
2013-1-17,51.7,41.2,32.4,45.7,39.1,32.2,99,92,73,29.33,29.19,15,3,22,2.48
2013-1-18,45.1,34.7,26.4,35.2,24.8,16.2,100,68,34,29.69,29.33,18,4,26,0.92
2013-1-19,49.3,35.3,26.3,45.0,32.9,28.4,104,66,64,29.66,29.30,13,4,15,0.00
2013-1-20,57.4,47.0,35.8,38.2,29.9,20.7,75,52,31,29.27,29.13,23,8,37,0.00
2013-1-21,54.7,42.1,29.6,36.8,23.3,11.0,84,48,33,29.27,29.04,20,7,32,0.00
2013-1-22,32.5,22.1,-68.6,99.9,15.5,-13.8,100,42,36,29.45,29.16,18,6,25,0.00
2013-1-23,39.3,18.4,-108.8,99.9,31.1,-59.4,100,45,43,29.51,29.27,16,5,21,0.00
2013-1-24,30.2,25.3,13.0,28.5,12.4,3.9,96,59,36,29.72,29.22,24,6,31,0.00
2013-1-25,23.9,19.7,12.9,22.5,14.7,6.3,100,81,52,29.69,29.24,16,4,20,0.00
2013-1-26,40.6,30.2,20.5,28.4,23.6,20.0,100,78,56,29.60,29.24,13,4,16,0.16
2013-1-27,36.0,27.7,18.0,26.9,23.2,17.1,98,83,66,29.78,29.60,9,2,11,0.00
2013-1-28,53.1,39.6,31.7,45.0,37.1,26.4,100,91,72,29.66,29.36,10,4,13,0.73
2013-1-29,74.2,56.7,41.5,57.5,48.8,40.8,100,77,50,29.36,29.24,14,6,18,0.00
2013-1-30,67.7,61.8,54.7,62.8,58.4,51.5,98,88,79,29.22,28.53,24,8,29,4.29
2013-1-31,58.8,41.2,31.1,56.9,24.0,13.4,93,51,34,29.13,28.53,30,10,45,0.29
2013-2-1,34.2,27.2,19.3,99.9,23.8,-0.3,89,45,34,29.57,29.01,26,6,39,0.00
2013-2-2,37.2,23.2,7.3,99.9,35.6,8.7,102,66,58,30.01,29.22,14,4,17,0.00
2013-2-3,39.5,33.6,24.9,28.8,24.4,16.7,99,70,50,29.22,29.04,26,5,30,0.02
2013-2-4,37.0,30.7,21.6,24.3,18.7,13.5,84,61,51,29.30,29.13,18,5,24,0.00
2013-2-5,55.8,43.2,32.4,38.3,31.1,23.8,84,62,44,29.13,29.07,17,6,21,0.00
2013-2-6,53.9,42.4,28.8,34.6,29.4,24.5,91,62,35,29.48,29.13,15,4,18,0.00
2013-2-7,39.5,36.7,33.8,31.6,27.4,25.2,91,68,62,29.60,29.36,9,5,11,0.04
2013-2-8,52.5,39.6,32.5,43.5,34.4,27.9,100,82,60,29.36,29.01,27,7,39,1.00
2013-2-9,50.5,37.6,26.2,32.1,23.1,15.9,92,57,39,29.54,29.19,25,6,32,0.00
2013-2-10,46.9,33.6,21.2,36.0,25.2,19.4,100,74,45,29.69,29.45,9,2,12,0.14
2013-2-11,58.2,46.5,35.9,53.8,43.0,27.3,103,78,33,29.45,29.04,20,5,30,0.17
2013-2-12,60.5,51.1,44.3,31.8,27.1,20.9,52,39,27,29.22,29.07,19,6,29,0.00
2013-2-13,51.1,41.6,38.0,39.2,32.5,20.0,100,72,29,29.16,28.86,11,3,17,0.17
2013-2-14,51.0,40.5,29.9,32.0,28.1,23.6,91,62,40,29.24,29.01,14,5,21,0.00
2013-2-15,60.8,42.8,25.3,38.8,31.3,24.2,98,67,35,29.27,29.10,16,5,24,0.00
2013-2-16,42.0,34.9,25.7,33.4,27.8,12.9,98,76,51,29.22,29.07,12,4,16,0.04
2013-2-17,32.9,25.5,18.6,99.9,11.4,0.9,100,46,34,29.42,29.10,19,8,26,0.01
2013-2-18,50.9,31.5,12.4,27.4,18.8,8.9,95,62,36,29.57,29.39,11,4,14,0.00
2013-2-19,51.0,40.1,29.1,44.7,28.9,15.8,98,67,31,29.36,28.98,23,6,31,0.34
2013-2-20,45.3,36.5,30.3,60.0,14.5,8.7,96,39,27,29.33,29.13,17,7,32,0.00
2013-2-21,50.4,36.1,25.6,53.1,16.3,11.1,94,44,29,29.45,29.33,14,5,17,0.00
2013-2-22,37.4,33.9,29.8,42.9,26.6,17.5,100,72,50,29.54,29.39,8,3,10,0.09
2013-2-23,52.6,39.9,32.8,41.3,36.1,30.3,99,86,62,29.42,29.04,7,2,8,0.00
2013-2-24,57.7,44.0,30.4,80.0,34.0,24.5,100,67,38,29.27,29.01,18,5,22,0.00
2013-2-25,43.8,33.3,24.8,54.8,25.4,21.7,104,71,49,29.42,29.27,8,2,11,0.00
2013-2-26,41.6,34.3,25.9,41.5,31.9,22.2,100,91,69,29.39,28.83,14,5,18,2.36
2013-2-27,53.5,45.3,35.3,72.4,41.2,30.9,100,71,44,28.95,28.77,15,6,22,0.01
2013-2-28,47.0,41.1,37.0,54.1,38.2,30.7,103,70,65,29.01,28.89,20,7,29,0.00
2013-3-1,43.0,38.6,31.6,37.9,34.4,30.2,100,85,75,29.13,29.01,15,6,19,0.00
2013-3-2,41.8,33.7,10.0,99.9,48.4,28.5,100,47,77,29.13,29.04,13,6,18,0.00
2013-3-3,44.5,29.5,-75.5,99.9,41.9,-21.9,102,63,69,29.16,29.04,20,8,24,0.00
2013-3-4,50.2,37.2,27.8,40.9,28.4,22.0,88,71,51,29.27,29.16,21,8,27,0.00
2013-3-5,46.3,39.1,32.6,43.1,36.7,22.5,103,52,53,29.27,28.95,12,3,17,0.70
2013-3-6,44.4,37.3,32.5,37.1,35.4,33.2,100,60,73,29.24,28.80,25,8,32,1.19
2013-3-7,47.8,41.6,34.6,36.1,32.2,28.0,90,69,54,29.42,29.24,17,7,22,0.00
2013-3-8,51.1,41.9,31.6,34.4,30.3,23.9,100,63,50,29.51,29.39,19,7,26,0.00
2013-3-9,38.5,32.0,26.2,32.0,29.1,26.2,100,88,73,29.51,29.48,8,2,10,0.00
2013-3-15,60.6,53.1,41.2,43.1,39.0,28.6,87,59,49,29.27,29.04,16,6,20,0.00
2013-3-16,77.4,53.8,38.0,59.5,48.4,36.2,100,84,46,29.07,28.77,21,3,31,0.21
2013-3-17,55.9,39.7,32.8,53.1,39.2,32.8,100,98,91,29.45,29.01,10,5,14,0.91
2013-3-18,33.9,32.6,31.9,33.3,32.6,31.9,100,100,100,29.45,29.13,9,2,11,1.23
2013-3-19,61.2,46.7,33.2,43.3,29.6,12.2,100,60,24,29.22,28.98,29,8,38,0.11
2013-3-20,54.2,44.7,36.2,26.6,18.6,12.2,58,35,27,29.24,28.98,21,7,27,0.00
2013-3-21,43.9,34.2,27.8,29.3,18.2,12.5,69,52,37,29.16,28.98,18,9,23,0.00
2013-3-22,48.5,35.9,23.4,27.8,19.3,12.9,68,51,40,29.22,29.13,16,6,23,0.00
2013-3-23,59.2,43.5,30.2,34.5,26.8,19.4,83,53,36,29.24,29.10,14,4,18,0.00
2013-3-24,42.0,35.0,31.2,34.1,29.7,25.2,104,75,54,29.19,28.86,12,3,15,0.05
2013-3-25,44.4,35.9,30.1,36.2,30.5,26.0,100,82,54,28.95,28.74,17,3,24,1.33
2013-3-26,46.9,41.2,34.5,32.7,29.1,26.3,75,62,48,29.27,28.95,15,6,20,0.00
2013-3-27,47.2,40.7,32.8,30.6,27.7,24.9,76,60,44,29.39,29.27,21,8,30,0.00
2013-3-28,56.0,38.1,-68.3,99.9,42.7,-7.1,100,55,53,29.48,29.36,20,7,26,0.00
2013-3-29,60.1,46.6,32.7,42.8,35.4,30.4,100,67,43,29.48,29.33,13,4,18,0.00
2013-3-30,63.5,47.1,30.0,41.0,35.6,29.5,100,67,41,29.45,29.27,13,3,17,0.00
2013-3-31,58.4,47.7,40.7,54.9,45.2,34.8,100,91,70,29.30,28.98,12,3,15,0.53
2013-4-1,63.4,52.9,42.6,48.6,41.9,28.8,100,67,49,29.22,29.01,20,7,28,0.00
2013-4-2,53.4,43.1,29.9,29.8,23.1,17.1,81,47,26,29.36,29.22,17,5,22,0.00
2013-4-3,56.2,44.2,31.6,27.3,20.9,17.6,80,40,25,29.54,29.36,14,5,19,0.00
2013-4-4,47.3,36.1,28.4,35.3,25.1,16.2,100,67,39,29.63,29.27,12,3,16,1.67
2013-4-5,67.3,49.3,34.3,48.5,37.7,32.1,100,71,34,29.30,29.07,14,4,18,0.48
2013-4-6,63.5,48.1,33.1,36.4,30.5,22.8,99,55,27,29.51,29.22,10,3,13,0.00
2013-4-7,72.0,55.0,35.8,49.6,42.0,28.7,94,63,43,29.45,29.24,16,6,21,0.00
2013-4-8,79.2,73.5,63.1,55.8,53.7,45.8,72,50,39,29.33,29.22,17,8,23,0.00
2013-4-9,83.6,71.6,55.7,61.3,56.0,51.6,87,59,41,29.36,29.22,16,6,22,0.00
2013-4-10,88.2,75.9,59.4,63.4,58.7,54.5,86,57,38,29.27,29.10,17,7,23,0.00
2013-4-11,82.7,74.2,62.5,63.5,59.9,57.3,84,61,44,29.13,28.98,19,8,25,0.00
2013-4-12,79.4,69.4,60.3,68.9,57.7,41.0,100,71,31,28.98,28.83,20,7,31,2.59
2013-4-13,73.3,61.3,46.3,45.8,38.7,32.4,77,44,25,29.19,28.95,22,6,29,0.00
2013-4-14,78.0,62.4,43.0,50.6,41.8,30.8,81,48,32,29.30,29.16,12,4,16,0.00
2013-4-15,63.6,56.9,52.7,55.9,53.5,45.7,100,89,52,29.48,29.24,9,4,13,1.07
2013-4-16,75.2,61.9,54.8,63.5,58.6,54.8,100,90,65,29.51,29.39,11,3,12,0.01
2013-4-17,83.4,69.9,58.0,65.7,61.3,57.4,100,77,43,29.42,29.30,12,3,17,0.45
2013-4-18,71.2,64.1,61.2,66.6,63.0,61.2,100,96,75,29.39,29.36,9,3,12,0.13
2013-4-19,74.1,66.7,55.3,67.8,62.0,41.5,99,85,59,29.19,28.89,19,8,28,0.90
2013-4-20,62.9,52.3,42.4,41.8,31.8,25.9,84,46,28,29.48,28.98,16,6,22,0.00
2013-4-21,45.6,39.7,36.4,35.8,31.6,29.0,87,72,55,29.72,29.48,11,3,15,0.00
2013-4-23,65.5,65.2,64.6,50.1,49.5,48.9,57,56,56,29.33,29.33,7,5,10,0.00
2013-4-25,58.2,55.5,52.8,47.4,44.8,42.1,67,66,66,29.27,29.24,7,7,9,0.00
2013-4-26,68.8,60.3,48.4,44.6,39.6,35.4,83,48,32,29.66,29.54,9,3,16,0.00
2013-4-27,71.2,58.4,45.1,52.4,46.6,42.2,93,67,40,29.60,29.48,10,3,14,0.00
2013-4-28,60.4,54.8,52.8,53.6,51.8,50.5,98,89,78,29.48,29.42,6,1,7,0.16
2013-5-2,68.8,66.4,62.6,50.7,48.5,45.8,59,52,46,29.57,29.51,12,5,14,0.00
2013-5-3,65.7,60.3,49.5,53.2,47.5,41.4,85,63,54,29.54,29.45,12,5,16,0.00
2013-5-4,50.4,49.4,49.0,43.1,43.0,42.5,79,78,76,29.51,29.45,10,9,12,0.00
2013-5-6,58.1,54.1,50.6,58.1,53.4,49.4,100,98,80,29.33,29.13,14,7,17,4.26
2013-5-7,67.7,58.7,55.9,63.6,58.2,55.8,100,98,82,29.19,29.10,13,5,17,1.85
2013-7-31,75.0,69.9,67.4,74.4,67.6,65.6,99,92,78,29.36,0.00,8,1,11,1.98
2013-8-1,67.6,67.6,67.6,65.9,65.9,65.9,94,94,94,29.27,29.27,0,0,0,0.00
2013-8-22,87.7,76.0,67.1,71.9,68.0,65.7,97,78,50,29.30,29.24,11,3,14,0.02
2013-8-23,72.9,64.4,59.0,68.4,62.5,58.6,98,93,85,29.36,29.22,12,4,17,0.01
2013-8-24,80.4,66.4,53.2,63.7,58.2,52.2,99,78,38,29.57,29.36,11,2,14,0.01
2013-8-25,81.3,66.7,54.3,64.6,59.1,53.8,98,79,44,29.63,29.54,8,1,10,0.01
2013-8-26,84.4,69.2,55.3,68.2,60.9,54.6,99,78,43,29.57,29.33,9,3,11,0.00
2013-8-27,87.2,75.4,64.5,75.9,68.0,62.3,94,79,55,29.30,29.19,12,4,17,0.01
2013-8-28,79.2,73.9,70.2,75.3,70.8,66.3,95,90,72,29.24,29.07,9,3,12,0.00
2013-8-29,83.3,75.6,68.2,73.0,70.2,66.9,97,84,59,29.27,29.10,13,4,16,0.01
2013-8-30,84.8,73.8,65.5,72.0,68.1,64.9,98,84,55,29.30,29.19,12,3,14,0.00
2013-8-31,87.5,74.4,67.4,75.9,69.0,66.0,95,83,60,29.19,29.10,13,4,15,0.00
2013-9-1,88.0,73.9,65.1,75.6,69.6,64.5,98,87,54,29.13,29.04,8,3,10,0.00
2013-9-2,87.8,76.7,68.0,74.9,69.3,66.4,97,80,51,29.13,29.04,10,3,13,0.00
2013-9-3,86.9,75.3,63.4,69.8,66.1,61.3,95,75,44,29.19,29.04,10,2,12,0.00
2013-9-4,81.8,68.0,57.5,65.6,60.0,54.4,97,78,43,29.36,29.19,10,2,14,0.01
2013-9-5,86.2,70.4,57.0,65.8,59.4,51.4,97,72,37,29.36,29.27,10,3,15,0.00
2013-9-6,77.8,64.8,55.6,60.5,55.6,48.4,97,76,40,29.48,29.36,9,2,13,0.00
2013-9-7,80.5,65.4,52.1,65.7,58.6,51.4,98,81,46,29.39,29.22,11,3,14,0.00
2013-9-8,89.2,71.7,58.5,71.2,63.7,57.7,98,79,41,29.24,29.16,8,2,10,0.00
2013-9-9,81.6,70.5,65.1,68.5,63.6,56.7,96,80,56,29.42,29.24,11,3,15,0.00
2013-9-10,91.2,76.1,64.6,75.5,68.7,63.7,97,80,51,29.45,29.36,9,3,11,0.00
2013-9-11,92.6,81.5,71.8,73.5,71.1,67.3,96,73,47,29.42,29.30,18,4,22,0.75
2013-9-12,90.1,76.3,67.1,73.9,68.7,61.6,96,79,44,29.30,29.04,31,4,41,0.04
2013-9-13,78.9,70.1,54.2,66.5,56.8,46.2,95,66,35,29.19,29.01,12,4,16,0.01
2013-9-14,73.9,57.9,47.4,55.9,48.9,44.6,97,75,38,29.39,29.19,11,2,12,0.01
2013-9-15,76.7,60.4,44.9,63.4,53.3,44.3,97,80,49,29.48,29.33,13,3,15,0.01
2013-9-16,76.0,65.6,57.8,65.8,61.0,56.6,96,85,65,29.36,29.33,10,3,14,0.00